createdAt,value
2022-08-28T00:00:14.216Z,100230.06
2022-08-28T00:03:01.916Z,100227.63
2022-08-28T00:05:31.460Z,100224.91
2022-08-28T00:07:59.717Z,100230.69
2022-08-28T00:10:28.579Z,100227.03
2022-08-28T00:12:57.573Z,100216.50
2022-08-28T00:15:32.752Z,100225.56
2022-08-28T00:18:00.514Z,100212.97
2022-08-28T00:20:28.918Z,100220.03
2022-08-28T00:22:57.460Z,100210.88
2022-08-28T00:25:27.291Z,100215.53
2022-08-28T00:27:57.562Z,100214.81
2022-08-28T00:30:46.492Z,100206.22
2022-08-28T00:33:19.811Z,100213.81
2022-08-28T00:35:48.409Z,100213.34
2022-08-28T00:38:19.966Z,100215.66
2022-08-28T00:40:51.700Z,100217.81
2022-08-28T00:43:39.153Z,100209.25
2022-08-28T00:46:11.167Z,100213.78
2022-08-28T00:48:38.734Z,100207.78
2022-08-28T00:51:25.261Z,100206.56
2022-08-28T00:53:58.567Z,100210.59
2022-08-28T00:56:27.962Z,100220.00
2022-08-28T00:58:58.386Z,100209.72
2022-08-28T01:01:25.679Z,100219.84
2022-08-28T01:03:54.021Z,100214.97
2022-08-28T01:06:22.061Z,100211.66
2022-08-28T01:08:50.602Z,100208.59
2022-08-28T01:11:19.508Z,100214.19
2022-08-28T01:13:48.700Z,100217.88
2022-08-28T01:16:18.216Z,100209.19
2022-08-28T01:18:47.506Z,100213.81
2022-08-28T01:21:40.068Z,100213.81
2022-08-28T01:24:15.045Z,100209.28
2022-08-28T01:26:43.549Z,100211.25
2022-08-28T01:29:12.131Z,100208.69
2022-08-28T01:31:40.012Z,100201.59
2022-08-28T01:34:09.544Z,100207.34
2022-08-28T01:36:36.916Z,100214.66
2022-08-28T01:39:17.507Z,100209.38
2022-08-28T01:41:47.875Z,100207.56
2022-08-28T01:44:17.809Z,100213.78
2022-08-28T01:46:46.490Z,100212.81
2022-08-28T01:49:14.231Z,100212.44
2022-08-28T01:51:42.231Z,100211.72
2022-08-28T01:54:10.928Z,100213.66
2022-08-28T01:56:40.513Z,100214.75
2022-08-28T01:59:08.746Z,100214.03
2022-08-28T02:01:36.090Z,100220.72
2022-08-28T02:04:04.546Z,100218.50
2022-08-28T02:06:32.082Z,100211.72
2022-08-28T02:09:00.566Z,100206.72
2022-08-28T02:11:29.833Z,100217.66
2022-08-28T02:13:56.892Z,100219.75
2022-08-28T02:16:24.125Z,100219.88
2022-08-28T02:18:51.183Z,100220.81
2022-08-28T02:21:18.351Z,100223.75
2022-08-28T02:23:46.925Z,100230.19
2022-08-28T02:26:14.888Z,100229.59
2022-08-28T02:28:42.804Z,100222.59
2022-08-28T02:31:11.052Z,100233.56
2022-08-28T02:33:43.721Z,100242.47
2022-08-28T02:36:13.276Z,100245.91
2022-08-28T02:38:40.899Z,100240.53
2022-08-28T02:41:08.308Z,100246.53
2022-08-28T02:43:35.665Z,100250.09
2022-08-28T02:46:03.956Z,100244.06
2022-08-28T02:48:32.903Z,100247.97
2022-08-28T02:51:03.047Z,100250.88
2022-08-28T02:53:30.580Z,100256.47
2022-08-28T02:55:58.939Z,100251.44
2022-08-28T02:58:27.372Z,100244.47
2022-08-28T03:00:55.172Z,100241.91
2022-08-28T03:03:22.492Z,100246.41
2022-08-28T03:05:50.103Z,100250.91
2022-08-28T03:08:17.747Z,100261.78
2022-08-28T03:10:44.951Z,100252.09
2022-08-28T03:13:13.976Z,100244.28
2022-08-28T03:15:56.017Z,100248.91
2022-08-28T03:18:25.562Z,100250.84
2022-08-28T03:20:53.216Z,100260.84
2022-08-28T03:23:26.434Z,100259.00
2022-08-28T03:26:02.869Z,100264.47
2022-08-28T03:28:34.122Z,100269.00
2022-08-28T03:31:01.762Z,100269.00
2022-08-28T03:33:28.728Z,100277.06
2022-08-28T03:35:55.765Z,100282.53
2022-08-28T03:38:23.112Z,100275.22
2022-08-28T03:40:53.877Z,100282.31
2022-08-28T03:43:23.604Z,100288.19
2022-08-28T03:45:59.040Z,100288.94
2022-08-28T03:48:27.941Z,100289.47
2022-08-28T03:50:55.815Z,100294.41
2022-08-28T03:53:25.355Z,100292.00
2022-08-28T03:55:52.709Z,100288.75
2022-08-28T03:58:20.468Z,100287.56
2022-08-28T04:00:47.906Z,100285.19
2022-08-28T04:03:15.277Z,100276.94
2022-08-28T04:05:44.502Z,100277.31
2022-08-28T04:08:16.693Z,100277.53
2022-08-28T04:10:45.274Z,100284.19
2022-08-28T04:13:13.127Z,100280.06
2022-08-28T04:15:41.460Z,100277.63
2022-08-28T04:18:10.354Z,100282.94
2022-08-28T04:20:38.452Z,100283.53
2022-08-28T04:23:08.014Z,100287.66
2022-08-28T04:25:35.273Z,100275.53
2022-08-28T04:28:02.845Z,100277.03
2022-08-28T04:30:29.922Z,100277.38
2022-08-28T04:32:57.757Z,100283.72
2022-08-28T04:35:28.242Z,100280.22
2022-08-28T04:37:59.015Z,100281.22
2022-08-28T04:40:26.888Z,100278.03
2022-08-28T04:42:55.179Z,100275.56
2022-08-28T04:45:26.300Z,100279.16
2022-08-28T04:48:13.661Z,100271.16
2022-08-28T04:51:00.218Z,100278.53
2022-08-28T04:53:28.806Z,100276.78
2022-08-28T04:55:59.266Z,100286.13
2022-08-28T04:58:28.416Z,100281.25
2022-08-28T05:01:21.427Z,100288.38
2022-08-28T05:03:55.169Z,100286.28
2022-08-28T05:06:23.150Z,100290.16
2022-08-28T05:08:50.346Z,100296.03
2022-08-28T05:11:33.598Z,100301.72
2022-08-28T05:14:17.197Z,100296.84
2022-08-28T05:16:51.946Z,100300.88
2022-08-28T05:19:20.373Z,100304.00
2022-08-28T05:21:48.148Z,100296.75
2022-08-28T05:24:15.234Z,100300.59
2022-08-28T05:26:42.547Z,100299.88
2022-08-28T05:29:10.832Z,100292.78
2022-08-28T05:31:39.363Z,100296.19
2022-08-28T05:34:07.535Z,100298.06
2022-08-28T05:36:36.919Z,100309.03
2022-08-28T05:39:07.808Z,100302.78
2022-08-28T05:41:36.102Z,100311.59
2022-08-28T05:44:08.772Z,100308.59
2022-08-28T05:46:39.651Z,100303.03
2022-08-28T05:49:09.993Z,100310.19
2022-08-28T05:51:41.003Z,100308.72
2022-08-28T05:54:08.754Z,100310.88
2022-08-28T05:56:38.440Z,100311.28
2022-08-28T05:59:09.243Z,100313.53
2022-08-28T06:01:46.082Z,100310.41
2022-08-28T06:04:20.569Z,100322.66
2022-08-28T06:06:49.514Z,100319.81
2022-08-28T06:09:19.444Z,100327.47
2022-08-28T06:11:46.984Z,100329.75
2022-08-28T06:14:18.102Z,100324.06
2022-08-28T06:16:52.582Z,100323.19
2022-08-28T06:19:22.813Z,100331.75
2022-08-28T06:21:53.555Z,100331.28
2022-08-28T06:24:20.842Z,100336.09
2022-08-28T06:26:47.920Z,100336.53
2022-08-28T06:29:18.532Z,100341.06
2022-08-28T06:31:53.766Z,100334.88
2022-08-28T06:34:21.293Z,100335.28
2022-08-28T06:36:53.162Z,100337.53
2022-08-28T06:39:22.197Z,100340.66
2022-08-28T06:41:49.568Z,100341.22
2022-08-28T06:44:20.063Z,100348.03
2022-08-28T06:46:54.046Z,100343.31
2022-08-28T06:49:22.051Z,100344.03
2022-08-28T06:51:49.459Z,100344.56
2022-08-28T06:54:22.251Z,100344.28
2022-08-28T06:56:53.128Z,100340.97
2022-08-28T06:59:20.402Z,100347.50
2022-08-28T07:01:47.977Z,100345.88
2022-08-28T07:04:15.432Z,100353.25
2022-08-28T07:06:53.761Z,100353.50
2022-08-28T07:09:24.216Z,100352.00
2022-08-28T07:11:51.509Z,100353.09
2022-08-28T07:14:19.057Z,100349.75
2022-08-28T07:16:46.487Z,100344.41
2022-08-28T07:19:14.237Z,100350.94
2022-08-28T07:21:44.189Z,100353.06
2022-08-28T07:24:14.947Z,100348.53
2022-08-28T07:26:43.703Z,100343.34
2022-08-28T07:29:11.972Z,100352.53
2022-08-28T07:31:48.459Z,100352.28
2022-08-28T07:34:19.154Z,100351.34
2022-08-28T07:39:31.511Z,100349.72
2022-08-28T07:41:58.925Z,100349.50
2022-08-28T07:44:44.767Z,100352.94
2022-08-28T07:47:12.612Z,100353.34
2022-08-28T07:49:40.806Z,100354.06
2022-08-28T07:52:09.009Z,100352.06
2022-08-28T07:54:38.262Z,100351.78
2022-08-28T07:57:09.309Z,100348.88
2022-08-28T07:59:42.267Z,100348.28
2022-08-28T08:02:12.821Z,100350.34
2022-08-28T08:04:40.638Z,100348.84
2022-08-28T08:07:08.681Z,100342.19
2022-08-28T08:09:41.765Z,100343.25
2022-08-28T08:12:20.708Z,100350.41
2022-08-28T08:14:49.968Z,100354.28
2022-08-28T08:17:17.279Z,100354.72
2022-08-28T08:19:47.043Z,100358.25
2022-08-28T08:22:14.498Z,100367.34
2022-08-28T08:24:42.878Z,100356.03
2022-08-28T08:27:11.062Z,100361.97
2022-08-28T08:29:39.151Z,100353.44
2022-08-28T08:32:07.981Z,100362.94
2022-08-28T08:34:49.621Z,100354.09
2022-08-28T08:37:16.737Z,100358.41
2022-08-28T08:39:43.889Z,100358.41
2022-08-28T08:42:24.322Z,100360.00
2022-08-28T08:44:54.117Z,100361.88
2022-08-28T08:47:38.770Z,100350.69
2022-08-28T08:50:30.704Z,100353.13
2022-08-28T08:53:24.197Z,100353.00
2022-08-28T08:55:54.522Z,100357.72
2022-08-28T08:58:38.985Z,100355.25
2022-08-28T09:01:56.521Z,100359.38
2022-08-28T09:04:51.687Z,100355.81
2022-08-28T09:07:49.194Z,100361.28
2022-08-28T09:10:19.726Z,100358.69
2022-08-28T09:12:51.770Z,100352.50
2022-08-28T09:15:50.818Z,100353.28
2022-08-28T09:18:22.399Z,100358.63
2022-08-28T09:20:52.064Z,100353.66
2022-08-28T09:23:21.218Z,100347.72
2022-08-28T09:26:01.548Z,100339.59
2022-08-28T09:28:31.529Z,100343.31
2022-08-28T09:31:00.797Z,100339.66
2022-08-28T09:33:38.365Z,100339.22
2022-08-28T09:36:24.270Z,100343.50
2022-08-28T09:39:18.182Z,100338.06
2022-08-28T09:42:42.394Z,100340.84
2022-08-28T09:45:22.599Z,100343.13
2022-08-28T09:47:57.271Z,100328.19
2022-08-28T09:50:26.083Z,100336.78
2022-08-28T09:52:56.543Z,100336.16
2022-08-28T09:55:26.650Z,100326.63
2022-08-28T09:57:55.364Z,100334.63
2022-08-28T10:00:23.138Z,100326.94
2022-08-28T10:03:26.518Z,100330.28
2022-08-28T10:06:11.254Z,100330.53
2022-08-28T10:09:06.398Z,100333.22
2022-08-28T10:11:48.878Z,100324.94
2022-08-28T10:14:40.915Z,100328.44
2022-08-28T10:17:33.045Z,100316.91
2022-08-28T10:20:13.088Z,100317.16
2022-08-28T10:23:02.328Z,100322.31
2022-08-28T10:25:42.526Z,100315.16
2022-08-28T10:28:52.691Z,100314.03
2022-08-28T10:34:57.330Z,100302.69
2022-08-28T10:37:52.943Z,100295.19
2022-08-28T10:40:29.186Z,100291.13
2022-08-28T10:43:19.900Z,100296.41
2022-08-28T10:45:51.822Z,100294.16
2022-08-28T10:48:35.476Z,100298.81
2022-08-28T10:51:08.658Z,100294.69
2022-08-28T10:53:46.532Z,100291.59
2022-08-28T10:56:19.670Z,100295.66
2022-08-28T10:58:53.567Z,100286.47
2022-08-28T11:01:31.314Z,100290.88
2022-08-28T11:04:01.788Z,100277.16
2022-08-28T11:06:46.309Z,100287.94
2022-08-28T11:09:38.098Z,100285.38
2022-08-28T11:12:27.952Z,100278.38
2022-08-28T11:14:55.239Z,100278.69
2022-08-28T11:17:27.915Z,100284.59
2022-08-28T11:23:46.246Z,100288.34
2022-08-28T11:26:34.471Z,100275.72
2022-08-28T11:29:04.368Z,100272.59
2022-08-28T11:31:39.607Z,100262.44
2022-08-28T11:34:07.374Z,100262.66
2022-08-28T11:37:08.155Z,100264.56
2022-08-28T11:39:43.531Z,100263.94
2022-08-28T11:42:12.923Z,100260.56
2022-08-28T11:47:57.854Z,100258.47
2022-08-28T11:50:33.260Z,100260.59
2022-08-28T11:53:17.605Z,100247.69
2022-08-28T11:55:53.867Z,100248.53
2022-08-28T11:58:39.598Z,100244.50
2022-08-28T12:01:11.383Z,100244.94
2022-08-28T12:03:53.783Z,100245.59
2022-08-28T12:09:53.135Z,100242.16
2022-08-28T12:12:24.572Z,100245.97
2022-08-28T12:15:02.916Z,100246.41
2022-08-28T12:17:46.657Z,100248.72
2022-08-28T12:20:24.154Z,100240.19
2022-08-28T12:22:54.715Z,100238.53
2022-08-28T12:25:37.994Z,100236.91
2022-08-28T12:28:19.201Z,100239.84
2022-08-28T12:30:59.501Z,100226.31
2022-08-28T12:33:54.122Z,100228.00
2022-08-28T12:36:29.934Z,100222.06
2022-08-28T12:38:58.561Z,100230.75
2022-08-28T12:41:25.694Z,100233.94
2022-08-28T12:43:58.623Z,100221.66
2022-08-28T12:46:36.395Z,100222.47
2022-08-28T12:49:27.297Z,100215.97
2022-08-28T12:52:20.916Z,100215.59
2022-08-28T12:54:50.178Z,100224.94
2022-08-28T12:57:23.479Z,100218.63
2022-08-28T12:59:55.647Z,100219.72
2022-08-28T13:02:33.894Z,100217.38
2022-08-28T13:05:06.992Z,100223.31
2022-08-28T13:07:40.595Z,100219.50
2022-08-28T13:10:19.628Z,100222.00
2022-08-28T13:13:01.968Z,100218.63
2022-08-28T13:15:53.672Z,100216.53
2022-08-28T13:18:49.948Z,100221.22
2022-08-28T13:21:32.769Z,100219.53
2022-08-28T13:24:32.277Z,100222.91
2022-08-28T13:27:24.686Z,100211.66
2022-08-28T13:30:14.155Z,100220.78
2022-08-28T13:33:06.462Z,100221.22
2022-08-28T13:35:43.014Z,100215.09
2022-08-28T13:38:13.242Z,100217.44
2022-08-28T13:41:04.475Z,100222.06
2022-08-28T13:43:44.786Z,100212.78
2022-08-28T13:46:12.597Z,100209.41
2022-08-28T13:48:39.788Z,100213.81
2022-08-28T13:51:12.702Z,100212.78
2022-08-28T13:53:48.514Z,100210.44
2022-08-28T13:56:17.328Z,100215.31
2022-08-28T13:58:45.022Z,100220.59
2022-08-28T14:01:48.871Z,100223.78
2022-08-28T14:04:22.770Z,100221.66
2022-08-28T14:06:51.486Z,100218.69
2022-08-28T14:09:18.970Z,100221.22
2022-08-28T14:11:50.641Z,100224.63
2022-08-28T14:14:20.248Z,100225.44
2022-08-28T14:16:49.145Z,100222.50
2022-08-28T14:19:16.701Z,100215.34
2022-08-28T14:21:43.953Z,100224.41
2022-08-28T14:24:12.017Z,100226.53
2022-08-28T14:26:40.666Z,100219.75
2022-08-28T14:29:10.226Z,100219.75
2022-08-28T14:31:43.545Z,100217.84
2022-08-28T14:34:13.745Z,100217.84
2022-08-28T14:36:41.902Z,100208.97
2022-08-28T14:42:45.879Z,100204.94
2022-08-28T14:45:14.279Z,100207.50
2022-08-28T14:48:03.284Z,100214.50
2022-08-28T14:50:34.226Z,100218.28
2022-08-28T14:53:10.273Z,100216.81
2022-08-28T14:55:42.247Z,100211.97
2022-08-28T14:58:09.309Z,100209.63
2022-08-28T15:00:42.463Z,100223.16
2022-08-28T15:03:10.859Z,100221.88
2022-08-28T15:05:38.428Z,100219.56
2022-08-28T15:08:11.620Z,100222.69
2022-08-28T15:10:42.636Z,100219.72
2022-08-28T15:13:12.981Z,100215.72
2022-08-28T15:15:43.309Z,100218.88
2022-08-28T15:18:11.567Z,100217.19
2022-08-28T15:26:29.378Z,100213.56
2022-08-28T15:29:04.422Z,100221.38
2022-08-28T15:31:36.749Z,100220.53
2022-08-28T15:34:13.621Z,100220.72
2022-08-28T15:36:45.659Z,100223.66
2022-08-28T15:39:45.145Z,100222.34
2022-08-28T15:42:13.421Z,100216.81
2022-08-28T15:44:41.053Z,100228.63
2022-08-28T15:47:09.271Z,100225.63
2022-08-28T15:49:47.525Z,100225.63
2022-08-28T15:52:18.880Z,100224.72
2022-08-28T15:54:46.795Z,100226.19
2022-08-28T15:57:14.501Z,100223.22
2022-08-28T15:59:49.841Z,100223.16
2022-08-28T16:02:24.673Z,100223.31
2022-08-28T16:04:54.159Z,100230.84
2022-08-28T16:07:23.152Z,100228.47
2022-08-28T16:09:50.887Z,100229.84
2022-08-28T16:12:18.925Z,100232.97
2022-08-28T16:14:46.697Z,100231.41
2022-08-28T16:17:15.827Z,100234.47
2022-08-28T16:19:45.145Z,100229.50
2022-08-28T16:22:16.134Z,100238.94
2022-08-28T16:24:44.909Z,100235.03
2022-08-28T16:27:15.345Z,100237.03
2022-08-28T16:29:44.615Z,100229.13
2022-08-28T16:32:14.269Z,100239.53
2022-08-28T16:34:51.832Z,100232.88
2022-08-28T16:37:40.118Z,100229.97
2022-08-28T16:40:29.854Z,100230.66
2022-08-28T16:42:59.847Z,100233.44
2022-08-28T16:45:26.928Z,100233.88
2022-08-28T16:47:54.171Z,100230.94
2022-08-28T16:50:21.677Z,100246.97
2022-08-28T16:52:48.773Z,100241.50
2022-08-28T16:55:16.575Z,100239.56
2022-08-28T16:57:45.153Z,100245.66
2022-08-28T17:00:13.545Z,100249.59
2022-08-28T17:02:41.616Z,100252.06
2022-08-28T17:05:09.877Z,100255.75
2022-08-28T17:07:37.017Z,100253.97
2022-08-28T17:10:06.654Z,100267.34
2022-08-28T17:12:34.315Z,100262.16
2022-08-28T17:15:03.881Z,100266.13
2022-08-28T17:17:32.350Z,100281.19
2022-08-28T17:20:00.731Z,100279.84
2022-08-28T17:22:32.874Z,100276.81
2022-08-28T17:25:28.522Z,100282.78
2022-08-28T17:27:56.114Z,100288.06
2022-08-28T17:30:23.735Z,100289.25
2022-08-28T17:32:52.211Z,100290.81
2022-08-28T17:35:19.522Z,100297.44
2022-08-28T17:37:48.657Z,100294.03
2022-08-28T17:40:25.481Z,100303.38
2022-08-28T17:42:58.196Z,100307.22
2022-08-28T17:45:28.709Z,100314.38
2022-08-28T17:47:56.701Z,100315.88
2022-08-28T17:50:24.224Z,100315.66
2022-08-28T17:52:51.739Z,100314.66
2022-08-28T17:55:20.326Z,100325.84
2022-08-28T17:57:48.000Z,100325.81
2022-08-28T18:00:16.743Z,100330.22
2022-08-28T18:02:50.876Z,100326.75
2022-08-28T18:05:18.256Z,100326.19
2022-08-28T18:07:45.579Z,100328.66
2022-08-28T18:12:58.301Z,100327.19
2022-08-28T18:15:25.713Z,100326.44
2022-08-28T18:17:53.431Z,100335.53
2022-08-28T18:20:22.397Z,100332.06
2022-08-28T18:22:51.677Z,100336.59
2022-08-28T18:25:39.446Z,100332.91
2022-08-28T18:28:22.194Z,100337.72
2022-08-28T18:30:52.364Z,100340.56
2022-08-28T18:33:28.086Z,100338.06
2022-08-28T18:36:00.338Z,100336.97
2022-08-28T18:38:28.832Z,100332.47
2022-08-28T18:41:00.500Z,100335.25
2022-08-28T18:43:27.790Z,100336.00
2022-08-28T18:45:56.236Z,100330.31
2022-08-28T18:48:23.633Z,100335.47
2022-08-28T18:50:52.534Z,100341.38
2022-08-28T18:53:22.043Z,100340.09
2022-08-28T18:55:52.873Z,100348.84
2022-08-28T18:58:31.437Z,100341.44
2022-08-28T19:01:03.358Z,100345.94
2022-08-28T19:03:30.929Z,100343.09
2022-08-28T19:05:58.096Z,100349.97
2022-08-28T19:08:26.008Z,100348.00
2022-08-28T19:10:54.280Z,100341.44
2022-08-28T19:13:22.000Z,100347.72
2022-08-28T19:18:52.766Z,100345.50
2022-08-28T19:21:21.078Z,100355.75
2022-08-28T19:23:56.155Z,100352.78
2022-08-28T19:26:28.142Z,100343.66
2022-08-28T19:28:57.521Z,100352.94
2022-08-28T19:31:41.316Z,100357.19
2022-08-28T19:34:11.398Z,100349.78
2022-08-28T19:36:41.942Z,100369.88
2022-08-28T19:39:09.528Z,100367.47
2022-08-28T19:41:37.352Z,100364.47
2022-08-28T19:44:05.227Z,100367.59
2022-08-28T19:46:34.460Z,100369.72
2022-08-28T19:49:03.871Z,100377.41
2022-08-28T19:51:33.701Z,100380.50
2022-08-28T19:54:06.845Z,100382.78
2022-08-28T19:59:03.973Z,100383.91
2022-08-28T20:01:35.521Z,100391.44
2022-08-28T20:04:15.456Z,100391.84
2022-08-28T20:06:42.551Z,100395.09
2022-08-28T20:09:13.055Z,100395.38
2022-08-28T20:11:47.950Z,100395.78
2022-08-28T20:14:17.870Z,100405.03
2022-08-28T20:16:48.570Z,100402.75
2022-08-28T20:19:15.726Z,100406.72
2022-08-28T20:21:47.151Z,100409.69
2022-08-28T20:24:20.589Z,100406.66
2022-08-28T20:26:48.592Z,100406.94
2022-08-28T20:29:15.988Z,100409.19
2022-08-28T20:31:45.416Z,100407.63
2022-08-28T20:34:13.728Z,100404.44
2022-08-28T20:36:40.765Z,100409.38
2022-08-28T20:39:14.721Z,100416.03
2022-08-28T20:41:44.471Z,100404.66
2022-08-28T20:44:14.439Z,100403.22
2022-08-28T20:46:42.407Z,100402.47
2022-08-28T20:49:11.503Z,100402.75
2022-08-28T20:51:58.827Z,100407.44
2022-08-28T20:54:29.448Z,100402.28
2022-08-28T20:56:58.022Z,100404.25
2022-08-28T20:59:28.922Z,100399.16
2022-08-28T21:02:13.404Z,100410.19
2022-08-28T21:04:43.666Z,100408.03
2022-08-28T21:07:12.764Z,100404.16
2022-08-28T21:10:03.991Z,100410.66
2022-08-28T21:12:29.174Z,100407.22
2022-08-28T21:14:56.263Z,100407.38
2022-08-28T21:17:29.571Z,100402.38
2022-08-28T21:20:04.611Z,100404.34
2022-08-28T21:22:33.053Z,100405.47
2022-08-28T21:25:06.283Z,100405.88
2022-08-28T21:27:34.092Z,100401.56
2022-08-28T21:30:01.836Z,100401.84
2022-08-28T21:32:34.021Z,100404.03
2022-08-28T21:35:04.160Z,100407.97
2022-08-28T21:37:31.425Z,100411.91
2022-08-28T21:39:59.695Z,100400.50
2022-08-28T21:42:27.056Z,100414.28
2022-08-28T21:44:54.814Z,100411.09
2022-08-28T21:47:23.358Z,100412.34
2022-08-28T21:49:52.228Z,100416.16
2022-08-28T21:52:22.051Z,100415.53
2022-08-28T21:54:55.907Z,100416.78
2022-08-28T21:57:24.304Z,100416.28
2022-08-28T21:59:51.556Z,100420.22
2022-08-28T22:02:18.659Z,100416.94
2022-08-28T22:07:26.869Z,100426.50
2022-08-28T22:09:54.279Z,100426.91
2022-08-28T22:12:22.351Z,100429.22
2022-08-28T22:14:49.369Z,100431.06
2022-08-28T22:17:17.996Z,100428.63
2022-08-28T22:19:47.565Z,100428.75
2022-08-28T22:22:34.925Z,100424.31
2022-08-28T22:25:02.958Z,100430.94
2022-08-28T22:27:32.030Z,100429.47
2022-08-28T22:29:59.054Z,100427.78
2022-08-28T22:32:27.976Z,100424.47
2022-08-28T22:37:47.101Z,100424.94
2022-08-28T22:40:14.791Z,100432.41
2022-08-28T22:42:42.789Z,100432.78
2022-08-28T22:45:10.048Z,100436.56
2022-08-28T22:47:47.066Z,100438.66
2022-08-28T22:50:15.023Z,100436.19
2022-08-28T22:52:46.813Z,100437.31
2022-08-28T22:55:15.745Z,100440.13
2022-08-28T22:57:43.266Z,100442.06
2022-08-28T23:00:14.590Z,100448.56
2022-08-28T23:02:42.532Z,100438.03
2022-08-28T23:05:10.947Z,100436.56
2022-08-28T23:07:38.792Z,100440.47
2022-08-28T23:10:08.048Z,100437.03
2022-08-28T23:12:35.300Z,100453.41
2022-08-28T23:15:07.478Z,100440.22
2022-08-28T23:17:34.767Z,100452.81
2022-08-28T23:20:04.849Z,100454.63
2022-08-28T23:22:31.865Z,100445.81
2022-08-28T23:24:59.537Z,100444.13
2022-08-28T23:27:42.287Z,100452.94
2022-08-28T23:30:10.721Z,100453.66
2022-08-28T23:32:38.329Z,100440.94
2022-08-28T23:35:07.318Z,100449.03
2022-08-28T23:37:35.323Z,100439.94
2022-08-28T23:40:05.094Z,100452.47
2022-08-28T23:42:34.894Z,100452.19
2022-08-28T23:45:02.280Z,100456.50
2022-08-28T23:47:32.440Z,100455.63
2022-08-28T23:49:59.629Z,100457.72
2022-08-28T23:52:30.956Z,100460.75
2022-08-28T23:55:07.105Z,100465.56
2022-08-28T23:57:36.656Z,100457.06
